Time;durP1;ratioP1;P1;durP2;ratioP2;P2;SDS_P1;SDS_P2;PMS_P1;PMS_P2;Temp;Humidity;BMP_temperature;BMP_pressure;BME280_temperature;BME280_humidity;BME280_pressure;Samples;Min_cycle;Max_cycle;Signal;HPM_P1;HPM_P2
2021/12/29 00:01:02;;;;;;;9.40;8.60;;;;;;;21.63;31.48;94345.88;4921559;28;102766;-51
2021/12/29 00:03:28;;;;;;;10.03;9.20;;;;;;;21.65;31.71;94353.56;4917340;28;102704;-51
2021/12/29 00:05:53;;;;;;;10.23;9.40;;;;;;;21.64;31.53;94352.78;4921471;28;102911;-51
2021/12/29 00:08:19;;;;;;;9.53;8.73;;;;;;;21.64;31.70;94352.78;4922118;28;104201;-51
2021/12/29 00:10:46;;;;;;;9.60;8.80;;;;;;;21.65;31.46;94357.00;4921712;28;103240;-51
2021/12/29 00:13:12;;;;;;;10.53;9.63;;;;;;;21.64;31.42;94363.41;4916924;28;102888;-51
2021/12/29 00:15:38;;;;;;;9.90;9.10;;;;;;;21.65;31.68;94366.84;4927757;28;102651;-51
2021/12/29 00:18:04;;;;;;;8.90;8.20;;;;;;;21.64;31.43;94358.09;4941241;28;102647;-51
2021/12/29 00:20:31;;;;;;;9.80;9.00;;;;;;;21.64;31.61;94363.41;4934808;28;102775;-51
2021/12/29 00:23:02;;;;;;;9.00;8.20;;;;;;;21.63;31.60;94354.66;4921189;28;102745;-51
2021/12/29 00:25:28;;;;;;;9.77;8.87;;;;;;;21.64;31.52;94347.44;4915561;28;102781;-51
2021/12/29 00:27:58;;;;;;;9.47;8.57;;;;;;;21.64;31.67;94344.78;4920860;28;103005;-50
2021/12/29 00:30:25;;;;;;;9.70;8.90;;;;;;;21.64;31.56;94339.47;4919338;28;102707;-51
2021/12/29 00:32:51;;;;;;;9.63;8.83;;;;;;;21.63;31.61;94341.34;4922121;28;103150;-51
2021/12/29 00:35:17;;;;;;;9.43;8.63;;;;;;;21.63;31.52;94343.22;4915282;28;103851;-50
2021/12/29 00:37:43;;;;;;;9.70;8.80;;;;;;;21.65;31.67;94350.88;4920750;28;102756;-51
2021/12/29 00:40:10;;;;;;;8.80;8.10;;;;;;;21.63;31.54;94336.03;4920319;28;102705;-51
2021/12/29 00:42:35;;;;;;;8.40;7.70;;;;;;;21.64;31.61;94331.50;4920964;28;103382;-50
2021/12/29 00:45:01;;;;;;;9.37;8.57;;;;;;;21.62;31.40;94331.03;4920861;28;102770;-51
2021/12/29 00:47:32;;;;;;;9.20;8.40;;;;;;;21.63;31.32;94330.72;4916576;28;104574;-51
2021/12/29 00:49:59;;;;;;;9.20;8.30;;;;;;;21.63;31.40;94327.28;4919589;28;102758;-51
2021/12/29 00:52:24;;;;;;;9.30;8.50;;;;;;;21.64;31.47;94328.84;4920943;28;102653;-51
2021/12/29 00:54:50;;;;;;;8.93;8.23;;;;;;;21.64;31.62;94339.47;4921420;28;103664;-50
2021/12/29 00:57:16;;;;;;;8.97;8.27;;;;;;;21.64;31.59;94336.81;4915890;28;103483;-51
2021/12/29 00:59:42;;;;;;;9.10;8.30;;;;;;;21.63;31.64;94340.56;4920343;28;102772;-51
2021/12/29 01:02:07;;;;;;;9.90;8.67;;;;;;;21.63;31.46;94345.88;4902544;28;102821;-50
2021/12/29 01:04:33;;;;;;;9.20;8.40;;;;;;;21.62;31.55;94333.69;4920041;28;102880;-51
2021/12/29 01:06:59;;;;;;;8.90;8.13;;;;;;;21.63;31.35;94341.34;4920799;28;103037;-51
2021/12/29 01:09:25;;;;;;;8.70;8.00;;;;;;;21.63;31.59;94341.34;4916634;28;103352;-50
2021/12/29 01:11:55;;;;;;;9.27;8.47;;;;;;;21.64;31.70;94334.16;4921034;28;102936;-50
2021/12/29 01:14:22;;;;;;;8.77;8.07;;;;;;;21.61;31.42;94324.94;4920139;28;103138;-51
2021/12/29 01:16:49;;;;;;;8.30;7.70;;;;;;;21.63;31.60;94321.97;4937005;28;102933;-51
2021/12/29 01:19:19;;;;;;;9.30;8.50;;;;;;;21.63;31.61;94319.31;4935124;28;102902;-51
2021/12/29 01:21:48;;;;;;;8.30;7.60;;;;;;;21.63;31.45;94319.31;4940037;28;102922;-51
2021/12/29 01:24:15;;;;;;;7.83;7.23;;;;;;;21.62;31.62;94323.06;4939867;28;103292;-50
2021/12/29 01:26:42;;;;;;;8.60;7.90;;;;;;;21.63;31.59;94316.66;4939426;28;103595;-51
2021/12/29 01:29:09;;;;;;;8.97;8.27;;;;;;;21.62;31.47;94312.44;4938699;28;102738;-51
2021/12/29 01:31:35;;;;;;;8.70;7.93;;;;;;;21.63;31.49;94304.13;4934672;28;102876;-50
2021/12/29 01:34:04;;;;;;;9.00;8.20;;;;;;;21.63;31.58;94309.44;4939532;28;102792;-50
2021/12/29 01:36:33;;;;;;;8.60;7.90;;;;;;;21.63;31.61;94309.44;4939109;28;102982;-50
2021/12/29 01:38:59;;;;;;;9.27;8.47;;;;;;;21.62;31.53;94302.56;4941218;28;102801;-50
2021/12/29 01:41:25;;;;;;;8.43;7.73;;;;;;;21.63;31.31;94309.44;4938873;28;103186;-51
2021/12/29 01:43:50;;;;;;;8.70;7.97;;;;;;;21.62;31.60;94293.81;4943219;28;103275;-51
2021/12/29 01:46:16;;;;;;;8.10;7.40;;;;;;;21.64;31.45;94296.94;4943118;28;103187;-51
2021/12/29 01:48:42;;;;;;;7.57;6.97;;;;;;;21.63;31.52;94292.72;4942993;28;102859;-50
2021/12/29 01:51:07;;;;;;;9.60;8.80;;;;;;;21.61;31.54;94295.69;4943401;28;102795;-51
2021/12/29 01:53:34;;;;;;;8.33;7.70;;;;;;;21.63;31.58;94292.72;4937052;28;103219;-51
2021/12/29 01:56:00;;;;;;;7.73;7.13;;;;;;;21.63;31.63;94282.09;4941938;28;102739;-50
2021/12/29 01:58:26;;;;;;;7.33;6.73;;;;;;;21.61;31.52;94274.44;4942742;28;102860;-51
2021/12/29 02:00:54;;;;;;;8.20;7.50;;;;;;;21.62;31.53;94280.53;4943312;28;102711;-51
2021/12/29 02:03:19;;;;;;;8.10;7.40;;;;;;;21.63;31.59;94274.13;4939320;28;103263;-51
2021/12/29 02:05:45;;;;;;;8.00;7.30;;;;;;;21.60;31.65;94264.91;4943354;28;103201;-50
2021/12/29 02:08:12;;;;;;;9.53;8.00;;;;;;;21.62;31.69;94264.59;4942458;28;102771;-51
2021/12/29 02:10:44;;;;;;;8.10;7.40;;;;;;;21.60;31.67;94259.59;4943339;28;102896;-50
2021/12/29 02:13:11;;;;;;;8.33;7.60;;;;;;;21.61;31.61;94247.06;4942591;28;102658;-50
2021/12/29 02:15:37;;;;;;;8.10;7.40;;;;;;;21.61;31.55;94252.38;4928428;28;102978;-50
2021/12/29 02:18:11;;;;;;;8.00;7.40;;;;;;;21.61;31.51;94242.53;4922468;28;103156;-51
2021/12/29 02:20:37;;;;;;;8.40;7.70;;;;;;;21.60;31.81;94243.63;4922503;28;102801;-50
2021/12/29 02:23:25;;;;;;;8.07;7.37;;;;;;;21.61;31.54;94237.22;4922686;28;102738;-50
2021/12/29 02:25:53;;;;;;;7.93;7.30;;;;;;;21.60;31.71;94230.34;4917460;28;103127;-50
2021/12/29 02:28:33;;;;;;;7.80;7.20;;;;;;;21.60;31.54;94218.94;4922721;28;103204;-51
2021/12/29 02:30:59;;;;;;;8.23;7.53;;;;;;;21.60;31.63;94216.28;4922855;28;104448;-51
2021/12/29 02:33:27;;;;;;;8.13;7.50;;;;;;;21.60;31.55;94213.63;4922961;28;102864;-51
2021/12/29 02:35:53;;;;;;;7.73;7.03;;;;;;;21.61;31.55;94207.97;4923375;28;102964;-50
2021/12/29 02:38:24;;;;;;;7.97;7.37;;;;;;;21.61;31.58;94207.19;4916901;28;102831;-51
2021/12/29 02:40:56;;;;;;;8.30;7.60;;;;;;;21.59;31.72;94210.19;4922837;28;102907;-50
2021/12/29 02:43:23;;;;;;;7.93;7.23;;;;;;;21.60;31.74;94208.31;4921703;28;103248;-51
2021/12/29 02:45:54;;;;;;;7.40;6.80;;;;;;;21.60;31.62;94198.44;4922644;28;102825;-50
2021/12/29 02:48:22;;;;;;;8.00;7.30;;;;;;;21.60;31.80;94197.66;4916109;28;103285;-50
2021/12/29 02:50:49;;;;;;;8.07;7.37;;;;;;;21.62;31.59;94198.91;4922487;28;102771;-50
2021/12/29 02:53:14;;;;;;;7.60;7.00;;;;;;;21.60;31.64;94198.44;4922045;28;102951;-50
2021/12/29 02:55:40;;;;;;;7.70;7.10;;;;;;;21.60;31.49;94203.75;4922197;28;103578;-50
2021/12/29 02:58:06;;;;;;;7.30;6.70;;;;;;;21.61;31.59;94207.19;4921573;28;102600;-51
2021/12/29 03:00:31;;;;;;;7.10;6.50;;;;;;;21.61;31.57;94202.66;4918420;28;102866;-51
2021/12/29 03:02:57;;;;;;;7.87;7.27;;;;;;;21.60;31.69;94206.44;4921996;28;102933;-51
2021/12/29 03:05:25;;;;;;;8.43;7.73;;;;;;;21.61;31.60;94204.53;4922862;28;103131;-50
2021/12/29 03:07:52;;;;;;;7.27;6.67;;;;;;;21.61;31.67;94200.00;4922121;28;103159;-50
2021/12/29 03:10:17;;;;;;;7.90;7.20;;;;;;;21.61;31.62;94209.84;4916498;28;102882;-51
2021/12/29 03:12:43;;;;;;;7.70;7.10;;;;;;;21.62;31.64;94206.09;4922384;28;103180;-50
2021/12/29 03:15:09;;;;;;;8.50;7.70;;;;;;;21.60;31.56;94201.09;4925762;28;102953;-51
2021/12/29 03:17:34;;;;;;;7.00;6.40;;;;;;;21.60;31.78;94184.38;4940018;28;102775;-51
2021/12/29 03:20:00;;;;;;;7.60;7.00;;;;;;;21.60;31.63;94187.03;4941796;28;102800;-51
2021/12/29 03:22:25;;;;;;;7.53;6.93;;;;;;;21.60;31.51;94192.34;4936329;28;102976;-50
2021/12/29 03:24:51;;;;;;;8.40;7.70;;;;;;;21.60;31.63;94192.34;4941679;28;103272;-51
2021/12/29 03:27:18;;;;;;;8.17;7.47;;;;;;;21.60;31.69;94187.81;4941381;28;102826;-51
2021/12/29 03:29:44;;;;;;;7.70;7.10;;;;;;;21.61;31.77;94193.91;4940509;28;102738;-50
2021/12/29 03:32:20;;;;;;;6.70;6.20;;;;;;;21.59;31.62;94182.81;4935529;28;103989;-51
2021/12/29 03:34:45;;;;;;;7.40;6.80;;;;;;;21.58;31.77;94190.00;4941181;28;103181;-51
2021/12/29 03:37:11;;;;;;;8.07;7.40;;;;;;;21.60;31.78;94182.50;4941484;28;102765;-50
2021/12/29 03:39:38;;;;;;;7.67;7.07;;;;;;;21.61;31.52;94188.59;4939104;28;102864;-51
2021/12/29 03:42:04;;;;;;;7.77;7.17;;;;;;;21.60;31.86;94192.34;4940265;28;102670;-51
2021/12/29 03:44:30;;;;;;;7.90;7.30;;;;;;;21.61;31.71;94184.06;4935797;28;104228;-50
2021/12/29 03:46:55;;;;;;;7.50;6.90;;;;;;;21.60;31.68;94185.16;4940866;28;102987;-50
2021/12/29 03:49:21;;;;;;;7.83;7.13;;;;;;;21.60;31.75;94179.84;4941344;28;102842;-51
2021/12/29 03:51:46;;;;;;;7.73;7.07;;;;;;;21.61;31.71;94178.75;4941030;28;102841;-51
2021/12/29 03:54:12;;;;;;;8.07;7.37;;;;;;;21.61;31.65;94183.28;4935966;28;102763;-50
2021/12/29 03:56:37;;;;;;;7.50;6.90;;;;;;;21.62;31.61;94177.66;4940978;28;103078;-51
2021/12/29 03:59:03;;;;;;;7.97;7.27;;;;;;;21.60;31.62;94177.19;4941014;28;102740;-50
2021/12/29 04:01:29;;;;;;;7.80;7.10;;;;;;;21.61;31.59;94178.75;4940215;28;103750;-50
2021/12/29 04:03:54;;;;;;;8.03;7.33;;;;;;;21.62;31.42;94172.31;4941019;28;103260;-50
2021/12/29 04:06:21;;;;;;;8.60;7.87;;;;;;;21.61;31.72;94175.31;4935883;28;102602;-51
2021/12/29 04:08:48;;;;;;;8.00;7.30;;;;;;;21.60;31.65;94171.88;4940594;28;102728;-50
2021/12/29 04:11:14;;;;;;;8.00;7.30;;;;;;;21.59;31.75;94170.31;4940617;28;103302;-50
2021/12/29 04:13:40;;;;;;;7.27;6.67;;;;;;;21.61;31.86;94172.66;4940531;28;102934;-51
2021/12/29 04:16:06;;;;;;;8.13;7.43;;;;;;;21.61;31.70;94178.75;4923764;28;103217;-51
2021/12/29 04:18:32;;;;;;;7.20;6.60;;;;;;;21.60;31.68;94166.56;4921490;28;102867;-50
2021/12/29 04:21:02;;;;;;;7.70;7.10;;;;;;;21.60;31.67;94166.56;4918939;28;102656;-51
2021/12/29 04:23:33;;;;;;;7.10;6.50;;;;;;;21.61;31.60;94167.34;4919881;28;103517;-51
2021/12/29 04:26:01;;;;;;;7.13;6.53;;;;;;;21.60;31.70;94165.78;4920826;28;102872;-50
2021/12/29 04:28:28;;;;;;;7.23;6.63;;;;;;;21.60;31.96;94168.44;4916248;28;102973;-51
2021/12/29 04:30:57;;;;;;;7.93;7.13;;;;;;;21.60;31.60;94158.56;4919576;28;102773;-50
2021/12/29 04:33:24;;;;;;;7.77;7.17;;;;;;;21.60;31.70;94160.47;4920577;28;103631;-51
2021/12/29 04:35:50;;;;;;;6.97;6.37;;;;;;;21.60;31.96;94155.13;4920323;28;102797;-50
2021/12/29 04:38:16;;;;;;;7.33;6.83;;;;;;;21.60;31.53;94155.91;4915252;28;102804;-50
2021/12/29 04:40:42;;;;;;;8.27;7.50;;;;;;;21.61;31.68;94167.34;4920731;28;102964;-50
2021/12/29 04:43:08;;;;;;;8.47;7.60;;;;;;;21.59;31.71;94166.88;4919997;28;103575;-50
2021/12/29 04:45:34;;;;;;;7.30;6.63;;;;;;;21.59;31.72;94164.22;4919548;28;102749;-50
2021/12/29 04:48:01;;;;;;;7.67;7.07;;;;;;;21.58;31.70;94170.63;4920762;28;102731;-51
2021/12/29 04:50:35;;;;;;;7.80;7.10;;;;;;;21.58;32.20;94174.06;4915249;28;102996;-50
2021/12/29 04:53:01;;;;;;;7.83;7.13;;;;;;;21.59;31.64;94180.94;4920026;28;102760;-50
2021/12/29 04:55:28;;;;;;;7.63;7.00;;;;;;;21.59;31.70;94185.47;4920446;28;102833;-50
2021/12/29 04:57:55;;;;;;;7.97;7.27;;;;;;;21.59;31.77;94196.09;4920855;28;102749;-50
2021/12/29 05:00:24;;;;;;;7.90;7.30;;;;;;;21.57;31.76;94187.69;4896314;28;103914;-50
2021/12/29 05:02:51;;;;;;;7.57;6.97;;;;;;;21.57;31.87;94187.69;4920527;28;103373;-50
2021/12/29 05:10:35;;;;;;;8.20;7.50;;;;;;;21.57;31.66;94190.34;4915229;28;103333;-50
2021/12/29 05:13:01;;;;;;;8.93;8.03;;;;;;;21.57;31.86;94188.44;4918312;28;104594;-50
2021/12/29 05:15:26;;;;;;;8.60;7.80;;;;;;;21.56;31.58;94191.44;4925649;28;102864;-51
2021/12/29 05:17:52;;;;;;;8.40;7.67;;;;;;;21.56;31.71;94188.78;4940000;28;102856;-50
2021/12/29 05:20:18;;;;;;;8.13;7.33;;;;;;;21.55;31.80;94182.69;4938557;28;103357;-51
2021/12/29 05:22:43;;;;;;;8.60;7.80;;;;;;;21.58;31.83;94189.22;4932032;28;102823;-50
2021/12/29 05:25:09;;;;;;;8.27;7.53;;;;;;;21.55;31.84;94190.66;4939618;28;102712;-50
2021/12/29 05:27:34;;;;;;;8.90;8.10;;;;;;;21.56;31.80;94192.22;4940174;28;102667;-51
2021/12/29 05:30:03;;;;;;;8.53;7.80;;;;;;;21.56;31.70;94191.44;4938253;28;103084;-50
2021/12/29 05:32:30;;;;;;;9.30;8.50;;;;;;;21.56;31.97;94194.88;4936495;28;104496;-51
2021/12/29 05:34:56;;;;;;;7.53;6.93;;;;;;;21.56;31.65;94196.75;4938518;28;102866;-50
2021/12/29 05:37:23;;;;;;;9.27;8.47;;;;;;;21.56;31.80;94199.41;4939803;28;102805;-51
2021/12/29 05:39:48;;;;;;;8.57;7.87;;;;;;;21.56;31.56;94196.75;4939579;28;103432;-51
2021/12/29 05:42:14;;;;;;;8.87;8.07;;;;;;;21.56;31.70;94200.19;4939311;28;102632;-51
2021/12/29 05:44:40;;;;;;;9.00;8.20;;;;;;;21.56;31.80;94202.84;4933374;28;102719;-51
2021/12/29 05:47:06;;;;;;;9.17;8.37;;;;;;;21.56;31.84;94207.38;4939589;28;102892;-51
2021/12/29 05:49:31;;;;;;;9.23;8.20;;;;;;;21.56;31.61;94207.38;4939260;28;103318;-51
2021/12/29 05:51:57;;;;;;;9.13;8.33;;;;;;;21.56;31.69;94218.00;4939326;28;102752;-51
2021/12/29 05:54:23;;;;;;;9.50;8.50;;;;;;;21.56;31.79;94212.69;4937126;28;102819;-51
2021/12/29 05:56:48;;;;;;;9.60;8.80;;;;;;;21.55;31.76;94214.56;4935759;28;102667;-51
2021/12/29 05:59:14;;;;;;;9.43;8.63;;;;;;;21.56;31.91;94212.69;4938021;28;102695;-51
2021/12/29 06:01:42;;;;;;;10.40;9.40;;;;;;;21.55;31.62;94206.59;4939952;28;102761;-51
2021/12/29 06:04:08;;;;;;;9.63;8.83;;;;;;;21.55;31.83;94206.59;4938297;28;102615;-51
2021/12/29 06:06:34;;;;;;;9.70;8.80;;;;;;;21.57;31.84;94206.28;4916210;28;102777;-50
2021/12/29 06:09:00;;;;;;;8.37;7.67;;;;;;;21.56;31.70;94210.81;4938675;28;102632;-50
2021/12/29 06:11:25;;;;;;;8.53;7.90;;;;;;;21.57;31.83;94208.94;4939248;28;103099;-50
2021/12/29 06:13:51;;;;;;;9.70;8.90;;;;;;;21.57;31.81;94214.25;4938777;28;103653;-50
2021/12/29 06:16:16;;;;;;;8.63;7.83;;;;;;;21.57;31.73;94211.59;4926743;28;102847;-50
2021/12/29 06:18:42;;;;;;;9.27;8.47;;;;;;;21.57;31.78;94216.91;4914216;28;103386;-50
2021/12/29 06:21:07;;;;;;;9.33;8.57;;;;;;;21.57;31.61;94215.03;4919189;28;103402;-51
2021/12/29 06:23:33;;;;;;;9.30;8.50;;;;;;;21.57;31.66;94207.06;4918822;28;102808;-50
2021/12/29 06:25:59;;;;;;;9.73;8.87;;;;;;;21.58;31.82;94210.50;4922964;28;102739;-51
2021/12/29 06:28:24;;;;;;;10.23;9.23;;;;;;;21.57;31.80;94208.94;4916481;28;102721;-51
2021/12/29 06:30:49;;;;;;;10.10;9.27;;;;;;;21.57;31.74;94217.69;4921772;28;102730;-51
2021/12/29 06:33:15;;;;;;;9.70;8.80;;;;;;;21.58;31.71;94223.78;4922915;28;102813;-51
2021/12/29 06:35:41;;;;;;;10.90;10.00;;;;;;;21.57;31.78;94228.31;4923087;28;102730;-51
2021/12/29 06:38:06;;;;;;;10.50;9.60;;;;;;;21.57;31.73;94230.19;4922485;28;103101;-50
2021/12/29 06:40:32;;;;;;;10.53;9.63;;;;;;;21.56;31.67;94229.41;4918218;28;102850;-51
2021/12/29 06:42:57;;;;;;;10.13;9.23;;;;;;;21.57;31.79;94230.19;4922599;28;102774;-51
2021/12/29 06:45:23;;;;;;;11.17;10.17;;;;;;;21.58;31.61;94234.41;4922133;28;102709;-51
2021/12/29 06:47:48;;;;;;;10.30;9.40;;;;;;;21.58;31.69;94229.09;4921774;28;103514;-51
2021/12/29 06:50:14;;;;;;;10.73;9.80;;;;;;;21.57;31.73;94230.97;4917944;28;103121;-50
2021/12/29 06:52:39;;;;;;;10.10;9.20;;;;;;;21.57;31.73;94235.50;4922204;28;102710;-51
2021/12/29 06:55:06;;;;;;;10.70;9.70;;;;;;;21.58;31.86;94237.06;4923413;28;102763;-51
2021/12/29 06:57:32;;;;;;;10.57;9.67;;;;;;;21.57;31.61;94230.19;4922019;28;102755;-51
2021/12/29 06:59:58;;;;;;;11.07;10.07;;;;;;;21.57;31.88;94233.63;4921609;28;102838;-50
2021/12/29 07:02:23;;;;;;;10.30;9.40;;;;;;;21.56;31.78;94228.66;4915935;28;102992;-50
2021/12/29 07:04:49;;;;;;;10.83;9.93;;;;;;;21.56;31.64;94229.41;4923212;28;102823;-51
2021/12/29 07:07:14;;;;;;;10.73;9.73;;;;;;;21.56;31.81;94236.63;4921793;28;103629;-51
2021/12/29 07:09:40;;;;;;;10.13;9.23;;;;;;;21.56;31.67;94228.66;4921972;28;103302;-51
2021/12/29 07:12:06;;;;;;;11.83;10.73;;;;;;;21.56;31.61;94225.97;4916727;28;103112;-51
2021/12/29 07:14:32;;;;;;;10.50;9.60;;;;;;;21.55;31.87;94230.53;4921797;28;102794;-51
2021/12/29 07:16:57;;;;;;;11.13;10.13;;;;;;;21.56;31.71;94236.63;4939774;28;102590;-50
2021/12/29 07:19:23;;;;;;;11.40;10.40;;;;;;;21.55;31.76;94241.16;4940831;28;104498;-51
2021/12/29 07:21:49;;;;;;;9.90;9.10;;;;;;;21.56;31.73;94245.38;4941451;28;102915;-51
2021/12/29 07:24:16;;;;;;;11.90;10.90;;;;;;;21.55;31.78;94238.50;4935560;28;102974;-51
2021/12/29 07:26:42;;;;;;;11.80;10.70;;;;;;;21.56;31.69;94244.59;4940908;28;102996;-51
2021/12/29 07:29:08;;;;;;;11.70;10.60;;;;;;;21.55;31.75;94246.47;4940795;28;103237;-50
2021/12/29 07:31:34;;;;;;;11.10;10.10;;;;;;;21.55;31.65;94237.72;4941150;28;102900;-50
2021/12/29 07:34:00;;;;;;;10.80;9.90;;;;;;;21.55;32.03;94243.03;4937350;28;103230;-50
2021/12/29 07:36:26;;;;;;;10.40;9.57;;;;;;;21.56;31.79;94249.91;4939726;28;102782;-50
2021/12/29 07:38:52;;;;;;;11.47;10.47;;;;;;;21.55;31.84;94243.03;4940986;28;103114;-50
2021/12/29 07:41:17;;;;;;;12.33;11.27;;;;;;;21.55;31.89;94251.78;4941299;28;103292;-50
2021/12/29 07:43:43;;;;;;;12.37;11.27;;;;;;;21.56;31.72;94253.34;4941217;28;102797;-50
2021/12/29 07:46:12;;;;;;;11.73;10.73;;;;;;;21.55;31.70;94249.13;4935888;28;102688;-50
2021/12/29 07:48:37;;;;;;;11.83;10.80;;;;;;;21.57;31.72;94251.47;4940475;28;103404;-51
2021/12/29 07:51:05;;;;;;;11.47;10.47;;;;;;;21.56;31.80;94249.91;4940814;28;102707;-51
2021/12/29 07:53:30;;;;;;;11.03;10.07;;;;;;;21.55;31.72;94248.34;4942410;28;104184;-50
2021/12/29 07:55:56;;;;;;;10.60;9.70;;;;;;;21.55;31.88;94253.66;4936696;28;103042;-50
2021/12/29 07:58:22;;;;;;;11.33;10.30;;;;;;;21.55;31.84;94254.44;4940097;28;103112;-51
2021/12/29 08:00:48;;;;;;;11.27;10.27;;;;;;;21.56;31.91;94250.69;4939109;28;102674;-51
2021/12/29 08:03:16;;;;;;;11.80;10.80;;;;;;;21.57;31.82;94256.78;4939678;28;102740;-51
2021/12/29 08:05:43;;;;;;;11.30;10.40;;;;;;;21.56;31.87;94258.66;4940530;28;102644;-51
2021/12/29 08:08:09;;;;;;;11.67;10.57;;;;;;;21.56;31.92;94263.19;4935504;28;103635;-50
2021/12/29 08:10:36;;;;;;;11.53;10.53;;;;;;;21.55;31.75;94258.97;4939993;28;103465;-51
2021/12/29 08:13:04;;;;;;;11.40;10.40;;;;;;;21.56;31.80;94261.31;4940375;28;102704;-50
2021/12/29 08:15:30;;;;;;;11.10;10.10;;;;;;;21.57;31.66;94256.78;4933876;28;104391;-50
2021/12/29 08:17:56;;;;;;;11.00;10.00;;;;;;;21.56;31.88;94255.22;4916738;28;104884;-50
2021/12/29 08:20:22;;;;;;;11.20;10.27;;;;;;;21.58;31.79;94258.34;4920216;28;102761;-50
2021/12/29 08:22:48;;;;;;;11.33;10.33;;;;;;;21.56;31.93;94261.31;4922217;28;103461;-50
2021/12/29 08:25:14;;;;;;;12.00;10.93;;;;;;;21.55;31.88;94262.41;4920857;28;103349;-50
2021/12/29 08:27:40;;;;;;;11.30;10.30;;;;;;;21.56;31.85;94257.88;4920347;28;103157;-50
2021/12/29 08:30:07;;;;;;;11.70;10.60;;;;;;;21.56;31.97;94256.00;4914577;28;102880;-51
2021/12/29 08:32:33;;;;;;;11.10;10.10;;;;;;;21.57;31.90;94251.47;4920897;28;102769;-51
2021/12/29 08:34:58;;;;;;;10.67;9.77;;;;;;;21.57;31.83;94252.25;4920273;28;103235;-50
2021/12/29 08:37:24;;;;;;;10.97;10.07;;;;;;;21.57;31.84;94246.94;4921062;28;102649;-51
2021/12/29 08:39:49;;;;;;;11.23;10.23;;;;;;;21.56;31.82;94250.69;4916434;28;103150;-51
2021/12/29 08:42:15;;;;;;;11.77;10.77;;;;;;;21.57;31.72;94248.81;4919891;28;102695;-50
2021/12/29 08:44:40;;;;;;;11.77;10.77;;;;;;;21.57;31.85;94246.16;4921104;28;103073;-50
2021/12/29 08:47:08;;;;;;;11.63;10.63;;;;;;;21.56;31.88;94249.91;4920883;28;103018;-50
2021/12/29 08:49:34;;;;;;;11.40;10.40;;;;;;;21.58;31.93;94247.72;4919320;28;102874;-50
2021/12/29 08:51:59;;;;;;;11.73;10.63;;;;;;;21.57;31.76;94248.81;4917437;28;104068;-50
2021/12/29 08:54:26;;;;;;;11.07;10.07;;;;;;;21.57;31.99;94248.81;4921069;28;103171;-51
2021/12/29 08:56:54;;;;;;;11.40;10.40;;;;;;;21.58;32.07;94247.72;4920763;28;104135;-51
2021/12/29 08:59:20;;;;;;;12.03;10.80;;;;;;;21.56;31.93;94242.72;4919952;28;102632;-51
2021/12/29 09:01:45;;;;;;;12.20;10.70;;;;;;;21.56;31.89;94241.94;4919288;28;102852;-51
2021/12/29 09:04:11;;;;;;;11.33;10.30;;;;;;;21.57;31.89;94240.84;4918919;28;102986;-50
2021/12/29 09:06:36;;;;;;;11.83;10.83;;;;;;;21.57;32.09;94246.94;4921842;28;102831;-51
2021/12/29 09:09:04;;;;;;;11.43;10.43;;;;;;;21.57;32.15;94246.16;4920951;28;102710;-50
2021/12/29 09:11:30;;;;;;;12.10;11.00;;;;;;;21.57;32.29;94244.28;4920153;28;102574;-51
2021/12/29 09:13:57;;;;;;;11.67;10.67;;;;;;;21.57;32.11;94243.50;4914649;28;102919;-50
2021/12/29 09:16:23;;;;;;;11.77;10.67;;;;;;;21.58;31.90;94237.06;4934257;28;102825;-51
2021/12/29 09:18:49;;;;;;;12.83;11.63;;;;;;;21.58;32.06;94237.06;4939756;28;103165;-51
2021/12/29 09:21:17;;;;;;;11.80;10.80;;;;;;;21.59;31.88;94228.00;4940295;28;102991;-50
2021/12/29 09:23:44;;;;;;;12.30;11.20;;;;;;;21.59;31.87;94222.69;4939015;28;102975;-51
2021/12/29 09:26:12;;;;;;;12.63;11.43;;;;;;;21.59;32.17;94228.00;4935992;28;103340;-51
2021/12/29 09:28:38;;;;;;;13.27;11.87;;;;;;;21.58;32.05;94221.13;4938819;28;102959;-50
2021/12/29 09:31:03;;;;;;;12.20;11.10;;;;;;;21.57;31.87;94217.69;4939783;28;102827;-51
2021/12/29 09:33:29;;;;;;;12.10;10.90;;;;;;;21.58;31.95;94216.59;4939516;28;102616;-50
2021/12/29 09:36:02;;;;;;;12.10;11.00;;;;;;;21.57;31.75;94203.63;4916930;28;104347;-51
2021/12/29 09:38:40;;;;;;;11.93;10.83;;;;;;;21.58;32.13;94205.97;4939603;28;102789;-51
2021/12/29 09:41:08;;;;;;;12.40;11.30;;;;;;;21.58;31.97;94203.31;4939457;28;103505;-51
2021/12/29 09:43:35;;;;;;;12.27;11.27;;;;;;;21.58;32.32;94200.66;4939418;28;102664;-50
2021/12/29 09:46:00;;;;;;;13.30;12.10;;;;;;;21.58;31.99;94200.66;4935707;28;103301;-50
2021/12/29 09:48:26;;;;;;;11.80;10.90;;;;;;;21.58;32.18;94190.00;4938489;28;102817;-50
2021/12/29 09:50:52;;;;;;;13.70;12.40;;;;;;;21.58;32.08;94195.31;4939511;28;102901;-51
2021/12/29 09:53:19;;;;;;;13.13;11.93;;;;;;;21.58;32.07;94190.00;4939463;28;103155;-51
2021/12/29 09:55:46;;;;;;;13.60;12.33;;;;;;;21.59;32.86;94188.13;4939026;28;102672;-50
2021/12/29 09:58:13;;;;;;;12.93;11.73;;;;;;;21.58;32.17;94190.00;4934517;28;102794;-50
2021/12/29 10:00:42;;;;;;;12.60;11.50;;;;;;;21.59;32.63;94185.47;4941963;28;102890;-50
2021/12/29 10:03:10;;;;;;;13.20;12.00;;;;;;;21.58;32.38;94179.38;4941626;28;103159;-51
2021/12/29 10:05:38;;;;;;;12.77;11.67;;;;;;;21.60;32.03;94173.75;4942737;28;103590;-51
2021/12/29 10:08:09;;;;;;;12.90;11.70;;;;;;;21.59;32.34;94174.84;4938542;28;102967;-50
2021/12/29 10:10:39;;;;;;;13.20;11.90;;;;;;;21.59;32.25;94180.16;4941932;28;103090;-51
2021/12/29 10:13:07;;;;;;;12.20;11.17;;;;;;;21.60;32.18;94171.09;4942210;28;103440;-50
2021/12/29 10:15:38;;;;;;;13.00;11.80;;;;;;;21.60;31.99;94163.13;4935597;28;102738;-50
2021/12/29 10:18:16;;;;;;;13.23;12.03;;;;;;;21.61;32.16;94165.44;4922834;28;102778;-50
2021/12/29 10:20:52;;;;;;;12.50;11.40;;;;;;;21.59;32.36;94153.59;4918608;28;103108;-51
2021/12/29 10:23:25;;;;;;;12.43;11.33;;;;;;;21.60;32.05;94149.81;4922670;28;103184;-50
2021/12/29 10:25:53;;;;;;;13.53;12.33;;;;;;;21.60;32.32;94144.50;4922135;28;103055;-50
2021/12/29 10:28:27;;;;;;;12.27;11.17;;;;;;;21.60;32.13;94145.28;4921140;28;102720;-50
2021/12/29 10:30:56;;;;;;;12.30;11.20;;;;;;;21.60;32.21;94139.19;4917321;28;102931;-51
2021/12/29 10:33:21;;;;;;;11.20;10.27;;;;;;;21.60;31.92;94139.19;4922228;28;104390;-50
2021/12/29 10:35:47;;;;;;;13.27;12.17;;;;;;;21.60;32.31;94136.53;4922761;28;102777;-51
2021/12/29 10:38:17;;;;;;;12.23;11.03;;;;;;;21.61;32.17;94136.22;4922507;28;102764;-51
2021/12/29 10:40:43;;;;;;;12.27;11.27;;;;;;;21.62;32.37;94137.00;4922707;28;102816;-50
2021/12/29 10:43:09;;;;;;;12.27;11.17;;;;;;;21.60;32.05;94134.66;4917225;28;102766;-51
2021/12/29 10:45:41;;;;;;;11.20;10.20;;;;;;;21.61;32.30;94130.13;4922685;28;103441;-50
2021/12/29 10:48:29;;;;;;;11.53;10.53;;;;;;;21.60;32.25;94121.38;4922238;28;102745;-50
2021/12/29 10:51:07;;;;;;;11.50;10.50;;;;;;;21.62;32.30;94131.69;4922811;28;102892;-50
2021/12/29 10:53:35;;;;;;;11.70;10.70;;;;;;;21.61;32.31;94135.44;4917062;28;102670;-50
2021/12/29 10:56:02;;;;;;;11.40;10.40;;;;;;;21.63;32.35;94127.91;4921845;28;103578;-51
2021/12/29 10:58:30;;;;;;;11.03;10.13;;;;;;;21.61;32.46;94117.59;4922502;28;103067;-51
2021/12/29 11:00:58;;;;;;;10.37;9.33;;;;;;;21.62;32.34;94115.72;4921738;28;102779;-51
2021/12/29 11:03:25;;;;;;;10.63;9.70;;;;;;;21.63;32.25;94117.28;4918028;28;103183;-51
2021/12/29 11:05:58;;;;;;;11.83;10.80;;;;;;;21.62;32.35;94121.81;4922185;28;102708;-51
2021/12/29 11:08:29;;;;;;;11.23;10.23;;;;;;;21.58;32.51;94117.47;4922726;28;103203;-52
2021/12/29 11:11:02;;;;;;;14.83;11.40;;;;;;;21.65;32.65;94114.31;4921265;28;103097;-52
2021/12/29 11:13:29;;;;;;;14.87;13.20;;;;;;;21.68;33.38;94114.47;4921151;28;102601;-52
2021/12/29 11:15:56;;;;;;;16.03;14.53;;;;;;;21.71;33.54;94115.72;4926871;28;103442;-52
2021/12/29 11:18:22;;;;;;;16.43;15.00;;;;;;;21.72;33.47;94118.03;4940501;28;103069;-51
2021/12/29 11:20:55;;;;;;;16.70;15.20;;;;;;;21.72;33.57;94104.75;4941340;28;102946;-51
2021/12/29 11:23:22;;;;;;;17.27;15.47;;;;;;;21.76;34.05;94113.66;4941579;28;103415;-52